Time;durP1;ratioP1;P1;durP2;ratioP2;P2;SDS_P1;SDS_P2;PMS_P1;PMS_P2;Temp;Humidity;BMP_temperature;BMP_pressure;BME280_temperature;BME280_humidity;BME280_pressure;Samples;Min_cycle;Max_cycle;Signal;HPM_P1;HPM_P2
2023/08/04 00:00:09;;;;;;;2.10;0.60;;;15.80;98.80;;;;;;4945640;29;20036;-74
2023/08/04 00:02:35;;;;;;;6.18;1.40;;;15.90;99.10;;;;;;4944238;29;20054;-74
2023/08/04 00:05:02;;;;;;;3.08;0.68;;;15.80;99.60;;;;;;4945170;29;20040;-73
2023/08/04 00:07:28;;;;;;;2.58;0.60;;;15.70;99.70;;;;;;4945218;29;20032;-74
2023/08/04 00:09:53;;;;;;;3.20;0.77;;;15.70;99.70;;;;;;4945508;29;20298;-75
2023/08/04 00:12:19;;;;;;;1.92;0.60;;;15.60;99.90;;;;;;4944910;29;20063;-73
2023/08/04 00:14:48;;;;;;;2.03;0.60;;;15.50;99.90;;;;;;4945216;29;20075;-73
2023/08/04 00:17:14;;;;;;;2.67;0.90;;;15.40;99.90;;;;;;4945654;29;20040;-74
2023/08/04 00:19:40;;;;;;;2.13;0.80;;;15.40;99.90;;;;;;4945296;29;20028;-74
2023/08/04 00:22:06;;;;;;;3.92;0.75;;;15.30;99.90;;;;;;4945492;29;20032;-73
2023/08/04 00:24:32;;;;;;;4.32;0.95;;;15.30;99.90;;;;;;4944785;29;20051;-74
2023/08/04 00:26:59;;;;;;;2.65;0.80;;;15.20;99.90;;;;;;4945255;29;20027;-72
2023/08/04 00:29:24;;;;;;;3.42;0.90;;;15.20;99.90;;;;;;4945037;29;20027;-74
2023/08/04 08:29:22;;;;;;;3.45;1.02;;;23.90;82.50;;;;;;4960950;29;20096;-73
2023/08/04 08:31:48;;;;;;;4.50;0.90;;;24.20;81.50;;;;;;4936671;29;20205;-73
2023/08/04 08:34:13;;;;;;;2.22;0.70;;;24.20;81.00;;;;;;4958269;29;20032;-72
2023/08/04 08:36:39;;;;;;;2.35;0.77;;;24.00;81.50;;;;;;4947265;29;20036;-73
2023/08/04 08:39:05;;;;;;;4.07;0.85;;;23.90;81.50;;;;;;4944297;29;20024;-73
2023/08/04 08:41:30;;;;;;;5.15;0.98;;;23.80;83.00;;;;;;4943822;29;20043;-72
2023/08/04 08:43:56;;;;;;;2.70;0.52;;;23.60;82.20;;;;;;4947697;29;20019;-71
2023/08/04 08:46:22;;;;;;;6.72;1.48;;;23.40;82.00;;;;;;4958559;29;20026;-72
2023/08/04 08:48:50;;;;;;;4.03;0.80;;;23.30;83.50;;;;;;4944046;29;20034;-73
2023/08/04 08:51:20;;;;;;;3.38;0.90;;;23.10;85.00;;;;;;4944518;29;20035;-72
2023/08/04 08:53:49;;;;;;;1.75;0.50;;;22.70;85.30;;;;;;4944381;29;20042;-72
2023/08/04 08:56:16;;;;;;;3.55;0.82;;;22.60;85.50;;;;;;4927888;29;20321;-72
2023/08/04 08:58:42;;;;;;;2.90;0.82;;;22.50;85.90;;;;;;4927989;29;20098;-70
2023/08/04 09:01:08;;;;;;;3.20;0.90;;;22.40;86.40;;;;;;4931508;29;20031;-71
2023/08/04 09:03:35;;;;;;;2.80;0.40;;;22.40;87.00;;;;;;4963766;29;20035;-71
2023/08/04 09:06:02;;;;;;;2.17;0.60;;;22.50;86.40;;;;;;4946418;29;20058;-71
2023/08/04 09:08:28;;;;;;;3.55;0.70;;;22.40;86.80;;;;;;4963655;29;20321;-73
2023/08/04 09:10:54;;;;;;;1.33;0.32;;;22.30;86.30;;;;;;4965101;28;20082;-74
2023/08/04 09:13:20;;;;;;;2.83;0.60;;;22.20;86.50;;;;;;4966932;29;20257;-77
2023/08/04 09:15:47;;;;;;;2.47;0.60;;;22.20;86.70;;;;;;4949642;29;20070;-75
2023/08/04 09:18:36;;;;;;;2.88;0.70;;;22.40;87.00;;;;;;4967292;29;20046;-75
2023/08/04 09:21:10;;;;;;;3.60;1.02;;;22.50;87.00;;;;;;4966612;29;20031;-74
2023/08/04 09:23:48;;;;;;;4.57;0.90;;;22.80;86.80;;;;;;4966677;29;20027;-73
2023/08/04 09:26:14;;;;;;;;;;;23.00;85.80;;;;;;4967847;29;20027;-72
2023/08/04 09:28:40;;;;;;;6.00;1.90;;;23.10;85.80;;;;;;4951691;29;20133;-74
2023/08/04 09:31:06;;;;;;;4.78;1.90;;;23.10;84.80;;;;;;4947153;29;20043;-73
2023/08/04 09:33:33;;;;;;;7.47;2.47;;;23.10;85.30;;;;;;4947892;29;20082;-73
2023/08/04 09:36:10;;;;;;;5.05;1.50;;;23.50;84.60;;;;;;4930367;29;20035;-74
2023/08/04 09:38:37;;;;;;;3.35;1.08;;;23.90;82.20;;;;;;4930739;29;20036;-75
2023/08/04 09:41:08;;;;;;;2.10;0.50;;;24.30;82.50;;;;;;4947203;29;20023;-74
2023/08/04 09:43:35;;;;;;;2.90;0.68;;;24.70;81.50;;;;;;4947905;29;20035;-76
2023/08/04 09:46:06;;;;;;;3.85;0.80;;;24.80;80.70;;;;;;4947112;29;20341;-75
2023/08/04 09:48:33;;;;;;;2.13;0.60;;;24.80;80.00;;;;;;4947661;29;20265;-73
2023/08/04 09:51:09;;;;;;;3.50;0.63;;;25.00;79.00;;;;;;4946979;29;20074;-74
2023/08/04 09:53:46;;;;;;;2.53;0.80;;;25.20;79.10;;;;;;4914915;29;20043;-76
2023/08/04 09:56:14;;;;;;;5.38;0.57;;;25.40;79.20;;;;;;4930677;29;20059;-73
2023/08/04 09:58:41;;;;;;;2.97;1.73;;;25.40;79.50;;;;;;4947201;29;20103;-74
2023/08/04 10:01:07;;;;;;;2.53;0.70;;;25.70;77.90;;;;;;4947048;29;20035;-74
2023/08/04 10:03:34;;;;;;;2.30;0.68;;;25.90;77.90;;;;;;4947339;29;20055;-74
2023/08/04 10:06:01;;;;;;;2.63;0.60;;;25.90;77.70;;;;;;4947034;29;20088;-72
2023/08/04 10:08:31;;;;;;;3.33;0.77;;;26.00;76.70;;;;;;4946712;29;20046;-73
2023/08/04 10:10:58;;;;;;;2.47;0.60;;;26.20;77.50;;;;;;4946535;29;20058;-74
2023/08/04 10:13:39;;;;;;;1.95;0.52;;;26.00;77.00;;;;;;4946740;29;20046;-74
2023/08/04 10:16:07;;;;;;;3.47;0.77;;;25.30;78.10;;;;;;4946567;29;20040;-75
2023/08/04 10:18:53;;;;;;;3.25;0.88;;;25.00;80.10;;;;;;4947126;29;20035;-74
2023/08/04 10:21:40;;;;;;;4.00;0.70;;;24.60;81.40;;;;;;4946716;29;20031;-72
2023/08/04 10:24:08;;;;;;;2.60;0.60;;;24.30;82.80;;;;;;4931188;29;20043;-72
2023/08/04 10:26:43;;;;;;;2.10;0.30;;;24.00;83.20;;;;;;4928027;29;20036;-72
2023/08/04 10:29:09;;;;;;;1.73;0.45;;;23.80;83.20;;;;;;4933596;29;20099;-73
2023/08/04 10:31:42;;;;;;;4.10;0.57;;;23.50;84.90;;;;;;4946828;29;20035;-74
2023/08/04 10:34:29;;;;;;;3.95;0.50;;;23.20;84.80;;;;;;4946261;29;20265;-73
2023/08/04 10:37:04;;;;;;;2.00;0.45;;;23.00;86.10;;;;;;4945881;29;20038;-72
2023/08/04 10:39:31;;;;;;;1.63;0.50;;;23.10;86.10;;;;;;4946636;29;20019;-74
2023/08/04 10:41:58;;;;;;;3.35;0.50;;;23.20;85.30;;;;;;4928830;29;20048;-73
2023/08/04 10:44:27;;;;;;;1.60;0.30;;;23.50;85.40;;;;;;4946606;29;20032;-74
2023/08/04 10:47:04;;;;;;;3.10;0.50;;;23.80;85.10;;;;;;4945807;29;20040;-75
2023/08/04 10:49:30;;;;;;;2.15;0.50;;;24.00;83.80;;;;;;4946757;29;20035;-73
2023/08/04 10:51:57;;;;;;;2.45;0.47;;;24.00;84.20;;;;;;4928892;29;20159;-75
2023/08/04 10:54:23;;;;;;;4.05;0.47;;;24.10;84.00;;;;;;4946342;29;20257;-76
2023/08/04 10:56:49;;;;;;;5.15;2.08;;;24.20;83.20;;;;;;4928388;29;20051;-75
2023/08/04 10:59:15;;;;;;;2.28;0.50;;;24.20;84.10;;;;;;4946557;29;20036;-78
2023/08/04 11:01:41;;;;;;;2.42;0.43;;;24.20;83.20;;;;;;4946234;29;20086;-78
2023/08/04 11:04:06;;;;;;;2.15;0.50;;;24.10;83.30;;;;;;4945937;29;20059;-74
2023/08/04 11:06:36;;;;;;;1.42;0.40;;;23.80;84.50;;;;;;4929457;29;20380;-75
2023/08/04 11:09:02;;;;;;;1.98;0.50;;;23.70;85.10;;;;;;4945191;29;20051;-73
2023/08/04 11:11:29;;;;;;;2.72;0.45;;;23.50;85.20;;;;;;4945959;29;20036;-74
2023/08/04 11:13:57;;;;;;;2.45;0.50;;;23.40;85.70;;;;;;4945305;29;20036;-73
2023/08/04 11:16:32;;;;;;;4.45;0.45;;;23.40;85.60;;;;;;4946199;29;20038;-75
2023/08/04 11:18:58;;;;;;;2.28;0.40;;;23.50;85.80;;;;;;4945689;29;20048;-73
2023/08/04 11:21:24;;;;;;;3.80;0.50;;;23.40;85.80;;;;;;4946136;29;20065;-77
2023/08/04 11:23:52;;;;;;;3.03;0.40;;;23.40;87.10;;;;;;4933142;29;20243;-75
2023/08/04 11:26:18;;;;;;;3.33;0.70;;;23.50;86.50;;;;;;4927085;29;20039;-77
2023/08/04 11:28:44;;;;;;;2.80;0.50;;;23.40;88.40;;;;;;4929470;29;20066;-77
2023/08/04 11:31:10;;;;;;;6.10;0.52;;;23.40;89.10;;;;;;4945041;29;20035;-75
2023/08/04 11:33:43;;;;;;;3.97;0.50;;;23.50;88.40;;;;;;4945477;29;20034;-74
2023/08/04 11:36:08;;;;;;;1.35;0.50;;;23.50;87.30;;;;;;4928424;29;20095;-74
2023/08/04 11:38:34;;;;;;;2.33;0.65;;;23.60;86.90;;;;;;4945730;29;20023;-76
2023/08/04 11:41:01;;;;;;;7.32;1.08;;;23.60;87.10;;;;;;4945038;29;20310;-73
2023/08/04 11:43:28;;;;;;;3.50;0.70;;;23.50;86.90;;;;;;4938050;29;20091;-76
2023/08/04 11:45:56;;;;;;;3.63;0.90;;;23.40;87.70;;;;;;4945159;29;20082;-75
2023/08/04 11:48:25;;;;;;;1.88;0.45;;;23.20;88.60;;;;;;4945755;29;20031;-74
2023/08/04 11:50:54;;;;;;;5.10;0.52;;;23.10;89.30;;;;;;4944850;29;20046;-75
2023/08/04 11:53:20;;;;;;;0.95;0.30;;;22.90;90.20;;;;;;4945377;29;20087;-73
2023/08/04 11:56:00;;;;;;;3.53;0.60;;;22.80;90.50;;;;;;4945229;29;20039;-75
2023/08/04 11:58:37;;;;;;;5.03;1.27;;;22.70;90.70;;;;;;4945464;29;20028;-75
2023/08/04 12:01:04;;;;;;;2.78;0.43;;;22.60;90.90;;;;;;4926112;29;20091;-77
2023/08/04 12:03:44;;;;;;;3.33;0.70;;;22.40;90.70;;;;;;4926232;29;20027;-74
2023/08/04 12:06:19;;;;;;;4.80;0.60;;;22.30;91.30;;;;;;4925980;29;20036;-76
2023/08/04 12:08:55;;;;;;;3.28;0.47;;;22.30;91.20;;;;;;4909378;29;20043;-75
2023/08/04 12:11:23;;;;;;;2.53;0.50;;;22.10;91.00;;;;;;4926159;29;20040;-76
2023/08/04 12:13:49;;;;;;;2.63;0.50;;;22.00;91.20;;;;;;4926373;29;20333;-75
2023/08/04 12:16:17;;;;;;;2.35;0.50;;;21.80;91.90;;;;;;4914603;29;20028;-75
2023/08/04 12:18:43;;;;;;;2.77;0.50;;;21.70;92.00;;;;;;4945259;29;20032;-75
2023/08/04 12:21:10;;;;;;;2.42;0.30;;;21.50;91.70;;;;;;4945003;29;20438;-74
2023/08/04 12:23:37;;;;;;;2.05;0.40;;;21.50;92.20;;;;;;4944840;29;20019;-74
2023/08/04 12:26:04;;;;;;;1.67;0.30;;;21.60;92.80;;;;;;4944628;29;20305;-76
2023/08/04 12:28:30;;;;;;;2.17;0.30;;;21.50;94.00;;;;;;4944954;29;20095;-75
2023/08/04 12:30:55;;;;;;;1.75;0.35;;;21.60;94.20;;;;;;4937136;29;20266;-75
2023/08/04 12:33:21;;;;;;;2.13;0.38;;;21.60;93.70;;;;;;4926341;29;20076;-76
2023/08/04 12:35:47;;;;;;;2.55;0.43;;;21.70;94.00;;;;;;4934170;29;20042;-76
2023/08/04 12:38:12;;;;;;;1.85;0.50;;;22.00;94.20;;;;;;4944585;29;20042;-77
2023/08/04 12:40:38;;;;;;;4.00;0.57;;;22.30;94.20;;;;;;4928341;29;20305;-75
2023/08/04 12:43:04;;;;;;;1.48;0.40;;;22.50;93.20;;;;;;4944773;29;20039;-75
2023/08/04 12:45:30;;;;;;;1.52;0.43;;;22.90;92.60;;;;;;4929343;29;20043;-73
2023/08/04 12:47:55;;;;;;;0.90;0.38;;;23.30;92.60;;;;;;4947811;29;20044;-74
2023/08/04 12:50:21;;;;;;;1.05;0.30;;;23.80;93.30;;;;;;4931547;29;20035;-74
2023/08/04 12:52:47;;;;;;;2.63;0.43;;;24.10;90.70;;;;;;4948691;29;20094;-74
2023/08/04 12:55:13;;;;;;;2.25;0.40;;;24.40;91.50;;;;;;4948100;29;20043;-74
2023/08/04 12:57:39;;;;;;;2.10;0.40;;;25.00;91.20;;;;;;4948304;29;20067;-75
2023/08/04 13:00:05;;;;;;;2.58;0.40;;;25.70;89.70;;;;;;4948313;29;20025;-75
2023/08/04 13:02:32;;;;;;;0.90;0.20;;;25.80;86.90;;;;;;4948665;29;20051;-75
2023/08/04 13:04:57;;;;;;;2.10;0.38;;;26.00;86.30;;;;;;4948188;29;20186;-74
2023/08/04 13:07:23;;;;;;;2.10;0.38;;;26.40;85.60;;;;;;4931629;29;20062;-75
2023/08/04 13:09:49;;;;;;;1.30;0.30;;;26.90;85.20;;;;;;4948526;29;20042;-75
2023/08/04 13:12:14;;;;;;;1.23;0.30;;;28.20;82.40;;;;;;4948023;29;20091;-74
2023/08/04 13:14:40;;;;;;;1.65;0.30;;;30.10;76.10;;;;;;4931549;29;20032;-74
2023/08/04 13:17:06;;;;;;;2.67;0.50;;;31.10;72.80;;;;;;4947817;29;20024;-76
2023/08/04 13:19:32;;;;;;;1.27;0.20;;;32.00;70.30;;;;;;4947907;29;20046;-75
2023/08/04 13:21:58;;;;;;;1.70;0.20;;;32.50;68.80;;;;;;4947602;29;20039;-76
2023/08/04 13:24:23;;;;;;;2.25;0.30;;;33.00;68.20;;;;;;4931117;29;20321;-74
2023/08/04 13:26:49;;;;;;;2.97;0.60;;;32.70;68.00;;;;;;4928735;29;20063;-74
2023/08/04 13:29:15;;;;;;;1.95;0.30;;;33.40;66.20;;;;;;4934959;29;20118;-74
2023/08/04 13:31:40;;;;;;;1.40;0.20;;;33.10;66.60;;;;;;4948076;29;20036;-75
2023/08/04 13:34:06;;;;;;;1.60;0.20;;;31.80;66.10;;;;;;4947524;29;20035;-74
2023/08/04 13:36:32;;;;;;;4.35;0.30;;;30.40;67.20;;;;;;4948066;29;20027;-75
2023/08/04 13:38:58;;;;;;;1.27;0.60;;;29.10;71.50;;;;;;4947323;29;20031;-76
2023/08/04 13:41:23;;;;;;;2.17;0.40;;;28.00;73.80;;;;;;4947685;29;20028;-76
2023/08/04 13:43:49;;;;;;;1.75;0.28;;;27.40;75.30;;;;;;4947846;29;20128;-74
2023/08/04 13:46:15;;;;;;;2.17;0.30;;;27.00;76.90;;;;;;4947297;29;20453;-75
2023/08/04 13:48:40;;;;;;;1.60;0.30;;;28.10;73.30;;;;;;4947707;29;20107;-74
2023/08/04 13:51:06;;;;;;;2.20;0.40;;;29.20;71.00;;;;;;4947525;29;20024;-76
2023/08/04 13:53:32;;;;;;;1.23;0.30;;;28.70;70.70;;;;;;4947511;29;20047;-77
2023/08/04 13:56:02;;;;;;;1.30;0.30;;;28.40;71.50;;;;;;4930045;29;20040;-75
2023/08/04 13:58:28;;;;;;;1.00;0.40;;;27.60;72.70;;;;;;4947705;29;20142;-74
2023/08/04 14:01:03;;;;;;;1.63;0.50;;;27.30;74.60;;;;;;4947252;29;20036;-75
2023/08/04 14:03:29;;;;;;;1.98;0.60;;;27.10;76.60;;;;;;4947155;29;20163;-73
2023/08/04 14:05:58;;;;;;;1.98;0.70;;;26.70;78.10;;;;;;4947207;29;20324;-76
2023/08/04 14:08:25;;;;;;;1.92;0.70;;;25.80;78.50;;;;;;4947669;29;20297;-76
2023/08/04 14:10:50;;;;;;;3.25;0.80;;;25.40;80.90;;;;;;4947420;29;20073;-75
2023/08/04 14:13:16;;;;;;;2.97;0.90;;;25.00;82.30;;;;;;4946353;29;20043;-75
2023/08/04 14:15:42;;;;;;;1.58;0.68;;;24.70;84.20;;;;;;4946894;29;20106;-74
2023/08/04 14:18:07;;;;;;;3.00;0.57;;;24.70;84.20;;;;;;4946979;29;20123;-75
2023/08/04 14:20:33;;;;;;;2.88;1.10;;;24.20;83.90;;;;;;4946968;29;20027;-74
2023/08/04 14:22:59;;;;;;;2.15;0.80;;;24.00;85.20;;;;;;4940235;29;20060;-72
2023/08/04 14:25:26;;;;;;;1.58;0.63;;;23.70;86.10;;;;;;4926849;29;20036;-73
2023/08/04 14:27:51;;;;;;;1.65;0.68;;;23.80;86.00;;;;;;4927754;29;20052;-73
2023/08/04 14:30:18;;;;;;;1.40;0.60;;;23.90;85.30;;;;;;4942870;29;20045;-74
2023/08/04 14:32:44;;;;;;;2.03;0.75;;;24.00;83.80;;;;;;4946870;29;20102;-73
2023/08/04 14:35:09;;;;;;;2.10;1.08;;;24.00;84.10;;;;;;4946500;29;20032;-72
2023/08/04 14:37:35;;;;;;;1.88;0.63;;;23.60;84.80;;;;;;4946856;29;20038;-74
2023/08/04 14:40:02;;;;;;;1.15;0.45;;;23.60;85.80;;;;;;4946065;29;20032;-73
2023/08/04 14:42:28;;;;;;;1.83;0.60;;;23.60;84.90;;;;;;4946856;29;20043;-74
2023/08/04 14:44:53;;;;;;;1.83;0.80;;;23.60;85.20;;;;;;4946453;29;20035;-74
2023/08/04 14:47:22;;;;;;;2.75;0.77;;;23.50;85.70;;;;;;4945905;29;20047;-72
2023/08/04 14:49:48;;;;;;;2.15;0.80;;;23.20;87.30;;;;;;4946112;29;20091;-72
2023/08/04 14:52:14;;;;;;;2.33;0.70;;;23.40;88.10;;;;;;4946048;29;20039;-72
2023/08/04 14:54:39;;;;;;;1.40;0.60;;;23.50;85.20;;;;;;4946369;29;20035;-73
2023/08/04 14:57:05;;;;;;;1.98;0.80;;;23.40;85.80;;;;;;4946120;29;20051;-74
2023/08/04 14:59:32;;;;;;;2.88;0.90;;;23.50;86.30;;;;;;4929481;29;20023;-73
2023/08/04 15:01:59;;;;;;;2.05;0.80;;;23.60;85.50;;;;;;4946471;29;20103;-73
2023/08/04 15:04:25;;;;;;;1.80;0.90;;;23.50;86.10;;;;;;4945772;29;20035;-73
2023/08/04 15:06:51;;;;;;;1.45;0.60;;;23.70;85.60;;;;;;4946082;29;20032;-72
2023/08/04 15:09:16;;;;;;;2.25;0.95;;;23.60;86.00;;;;;;4945384;29;20030;-73
2023/08/04 15:11:42;;;;;;;2.03;0.90;;;23.60;86.40;;;;;;4945909;29;20039;-73
2023/08/04 15:14:08;;;;;;;2.65;0.82;;;23.60;85.50;;;;;;4945830;29;20369;-74
2023/08/04 15:16:33;;;;;;;1.15;0.63;;;23.40;86.60;;;;;;4929386;29;20054;-74
2023/08/04 15:18:59;;;;;;;2.35;0.85;;;23.40;87.60;;;;;;4945961;29;20057;-73
2023/08/04 15:21:25;;;;;;;1.80;0.70;;;23.30;86.60;;;;;;4929194;29;20233;-75
2023/08/04 15:23:51;;;;;;;2.60;0.70;;;23.30;87.20;;;;;;4944652;29;20231;-75
2023/08/04 15:26:16;;;;;;;3.25;0.90;;;23.40;86.50;;;;;;4944832;29;20059;-74
2023/08/04 15:28:42;;;;;;;2.20;0.80;;;23.30;87.00;;;;;;4926767;29;20047;-72
2023/08/04 15:31:08;;;;;;;2.58;1.02;;;23.10;87.80;;;;;;4944754;29;20217;-72
2023/08/04 15:33:36;;;;;;;2.05;0.70;;;23.00;88.30;;;;;;4945702;29;20205;-74
2023/08/04 15:36:06;;;;;;;2.28;1.20;;;22.90;89.60;;;;;;4928018;29;20050;-73
2023/08/04 15:38:32;;;;;;;3.03;1.17;;;23.00;89.10;;;;;;4945467;29;20060;-72
2023/08/04 15:41:06;;;;;;;2.35;1.02;;;23.00;89.10;;;;;;4945672;29;20328;-76
2023/08/04 15:43:35;;;;;;;2.22;1.35;;;22.90;89.40;;;;;;4945581;29;20307;-73
2023/08/04 15:46:00;;;;;;;1.80;0.98;;;22.60;89.80;;;;;;4945623;29;20036;-75
2023/08/04 15:48:26;;;;;;;2.13;1.38;;;22.60;90.30;;;;;;4944824;29;20054;-73
2023/08/04 15:50:52;;;;;;;2.20;1.38;;;22.50;90.20;;;;;;4945566;29;20190;-72
2023/08/04 15:53:18;;;;;;;2.75;1.27;;;22.50;90.40;;;;;;4945027;29;20211;-72
2023/08/04 15:55:44;;;;;;;3.30;1.95;;;22.90;90.10;;;;;;4945152;29;20194;-72
2023/08/04 15:58:09;;;;;;;2.88;1.38;;;23.10;89.40;;;;;;4944397;29;20035;-73
2023/08/04 16:00:35;;;;;;;3.00;1.77;;;23.50;88.70;;;;;;4945238;29;20046;-75
2023/08/04 16:03:01;;;;;;;2.33;1.55;;;23.50;87.90;;;;;;4945597;29;20324;-73
2023/08/04 16:05:27;;;;;;;3.33;1.58;;;23.60;87.50;;;;;;4928037;29;20039;-76
2023/08/04 16:07:53;;;;;;;4.57;1.70;;;23.60;87.10;;;;;;4928582;29;20027;-74
2023/08/04 16:10:22;;;;;;;3.90;1.60;;;23.70;87.20;;;;;;4944540;29;20028;-75
2023/08/04 16:12:48;;;;;;;4.28;1.52;;;23.90;87.30;;;;;;4945002;29;20035;-73
2023/08/04 16:15:13;;;;;;;3.40;1.40;;;23.90;87.40;;;;;;4911864;29;20034;-73
2023/08/04 16:18:04;;;;;;;2.20;1.30;;;24.00;87.10;;;;;;4931735;29;20050;-74
2023/08/04 16:20:55;;;;;;;2.38;0.90;;;24.00;86.40;;;;;;4947065;29;20082;-73
2023/08/04 16:23:47;;;;;;;1.75;0.50;;;23.70;86.40;;;;;;4936891;29;20424;-73
2023/08/04 16:26:38;;;;;;;2.60;0.63;;;24.30;84.00;;;;;;4929986;29;20101;-74
2023/08/04 16:58:14;;;;;;;1.30;0.50;;;24.70;81.20;;;;;;4948254;29;20356;-73
2023/08/04 17:00:43;;;;;;;1.40;0.52;;;24.20;84.10;;;;;;4948240;29;20050;-72
2023/08/04 17:03:08;;;;;;;1.80;0.70;;;23.60;85.80;;;;;;4948068;29;20031;-72
2023/08/04 17:05:34;;;;;;;1.70;0.90;;;23.20;87.60;;;;;;4931565;29;20091;-72
2023/08/04 17:08:00;;;;;;;1.60;0.77;;;22.90;88.50;;;;;;4930993;29;20031;-74
2023/08/04 17:10:26;;;;;;;1.60;0.55;;;22.60;89.90;;;;;;4947686;29;20098;-72
2023/08/04 17:12:52;;;;;;;1.45;0.70;;;22.20;90.50;;;;;;4931608;29;20065;-74
2023/08/04 17:15:17;;;;;;;1.23;0.60;;;22.00;91.00;;;;;;4931415;29;20213;-73
2023/08/04 17:17:43;;;;;;;1.98;0.70;;;21.90;91.30;;;;;;4931103;29;20094;-74
2023/08/04 17:20:10;;;;;;;2.17;0.60;;;21.90;91.20;;;;;;4930720;29;20028;-73
2023/08/04 17:22:36;;;;;;;1.95;0.90;;;21.80;91.40;;;;;;4915372;29;20030;-73
2023/08/04 17:25:02;;;;;;;2.72;1.20;;;21.50;91.90;;;;;;4931146;29;20027;-71
2023/08/04 17:27:27;;;;;;;2.30;1.38;;;21.40;92.30;;;;;;4930800;29;20046;-71
2023/08/04 17:29:54;;;;;;;2.33;1.48;;;21.20;92.40;;;;;;4928046;29;20024;-74
2023/08/04 17:32:20;;;;;;;2.30;1.50;;;21.00;92.60;;;;;;4926852;29;20062;-76
2023/08/04 17:34:47;;;;;;;3.35;1.60;;;20.90;93.00;;;;;;4911777;29;20214;-76
2023/08/04 17:37:12;;;;;;;2.50;1.42;;;20.70;93.40;;;;;;4930400;29;20055;-75
2023/08/04 17:39:38;;;;;;;2.95;1.70;;;20.50;93.80;;;;;;4947912;29;20242;-75
2023/08/04 17:42:04;;;;;;;2.90;1.90;;;20.20;93.90;;;;;;4931273;29;20051;-75
2023/08/04 17:44:30;;;;;;;5.53;1.90;;;20.00;94.10;;;;;;4947380;29;20047;-73
2023/08/04 17:46:56;;;;;;;2.47;1.75;;;19.70;94.60;;;;;;4947579;29;20062;-74
2023/08/04 17:49:22;;;;;;;3.13;1.92;;;19.70;94.70;;;;;;4947227;29;20039;-75
2023/08/04 17:51:47;;;;;;;3.70;1.83;;;19.50;94.90;;;;;;4947607;29;20040;-75
2023/08/04 17:54:13;;;;;;;2.63;1.80;;;19.50;95.10;;;;;;4930244;29;20039;-75
2023/08/04 17:56:39;;;;;;;13.93;2.20;;;19.40;95.30;;;;;;4947566;29;20038;-74
2023/08/04 17:59:05;;;;;;;5.05;2.00;;;19.40;95.70;;;;;;4947821;29;20028;-73
2023/08/04 18:01:31;;;;;;;4.03;1.75;;;19.40;95.00;;;;;;4930132;29;20070;-74
2023/08/04 18:03:56;;;;;;;3.00;1.67;;;19.30;95.10;;;;;;4947076;29;20035;-74
2023/08/04 18:06:22;;;;;;;3.13;1.70;;;19.20;95.60;;;;;;4946723;29;20020;-73
2023/08/04 18:08:48;;;;;;;3.35;1.73;;;19.20;95.70;;;;;;4930414;29;20070;-73
2023/08/04 18:11:13;;;;;;;4.75;2.00;;;19.10;95.80;;;;;;4946671;29;20031;-75
2023/08/04 18:13:39;;;;;;;3.55;2.13;;;19.20;96.00;;;;;;4930628;29;20058;-74
2023/08/04 18:16:05;;;;;;;3.28;2.00;;;19.10;96.20;;;;;;4947331;29;20207;-78
2023/08/04 18:18:36;;;;;;;3.72;2.15;;;19.10;96.30;;;;;;4946834;29;20198;-76
2023/08/04 18:21:02;;;;;;;5.10;2.50;;;19.00;96.60;;;;;;4929987;29;20027;-76
2023/08/04 18:23:27;;;;;;;4.93;2.47;;;18.90;96.80;;;;;;4929081;29;20225;-76
2023/08/04 18:25:58;;;;;;;3.83;2.42;;;18.90;97.00;;;;;;4929313;29;20024;-76
2023/08/04 18:28:30;;;;;;;4.70;2.45;;;18.90;97.00;;;;;;4929115;29;20258;-73
2023/08/04 18:30:57;;;;;;;4.95;1.85;;;18.80;97.20;;;;;;4930002;29;20213;-75
2023/08/04 18:33:23;;;;;;;3.72;2.17;;;18.80;97.00;;;;;;4946293;29;20115;-75
2023/08/04 18:35:49;;;;;;;3.13;1.67;;;18.70;97.00;;;;;;4946432;29;20322;-74
2023/08/04 18:38:16;;;;;;;3.35;1.83;;;18.70;97.20;;;;;;4921604;29;20035;-76
2023/08/04 18:40:46;;;;;;;2.47;1.65;;;18.60;97.30;;;;;;4945546;29;20311;-76
2023/08/04 18:43:12;;;;;;;4.72;2.10;;;18.50;97.50;;;;;;4944156;29;20094;-74
2023/08/04 18:45:38;;;;;;;3.55;1.90;;;18.60;97.80;;;;;;4928604;29;20051;-75
2023/08/04 18:48:09;;;;;;;3.53;1.85;;;18.40;97.70;;;;;;4936269;29;20046;-75
2023/08/04 18:50:54;;;;;;;3.47;2.05;;;18.40;97.90;;;;;;4938097;29;20050;-76
2023/08/04 18:53:20;;;;;;;3.38;1.92;;;18.40;97.90;;;;;;4959681;29;20046;-76
2023/08/04 18:55:46;;;;;;;3.70;2.03;;;18.30;98.10;;;;;;4965298;29;20031;-76
2023/08/04 18:58:12;;;;;;;2.88;2.10;;;18.30;98.00;;;;;;4965265;29;20069;-77
2023/08/04 19:00:38;;;;;;;3.85;2.10;;;18.30;98.00;;;;;;4948248;29;20099;-75
2023/08/04 19:03:03;;;;;;;3.97;2.38;;;18.20;98.10;;;;;;4964650;29;20090;-74
2023/08/04 19:05:29;;;;;;;4.05;2.10;;;18.20;98.20;;;;;;4965180;29;20027;-74
2023/08/04 19:07:58;;;;;;;3.47;2.28;;;18.20;98.20;;;;;;4965614;29;20246;-75
2023/08/04 19:10:24;;;;;;;3.50;2.13;;;18.20;98.40;;;;;;4965057;29;20030;-74
2023/08/04 19:12:49;;;;;;;4.40;2.53;;;18.20;98.30;;;;;;4964795;29;20031;-75
2023/08/04 19:15:15;;;;;;;4.95;3.00;;;18.10;98.70;;;;;;4948007;29;20031;-75
2023/08/04 19:17:41;;;;;;;4.97;3.00;;;18.20;98.60;;;;;;4965394;29;20034;-75
2023/08/04 19:20:08;;;;;;;5.10;2.83;;;18.10;98.60;;;;;;4965342;29;20043;-74
2023/08/04 19:22:35;;;;;;;4.00;2.70;;;18.10;98.80;;;;;;4961871;29;20293;-75
2023/08/04 19:25:10;;;;;;;4.70;3.03;;;18.00;99.00;;;;;;4928461;29;20095;-77
2023/08/04 19:27:36;;;;;;;4.95;2.90;;;17.90;99.20;;;;;;4945605;29;20047;-76
2023/08/04 19:30:01;;;;;;;5.32;2.97;;;17.90;99.50;;;;;;4954735;29;20341;-75
2023/08/04 19:32:27;;;;;;;5.35;3.13;;;17.90;99.70;;;;;;4944659;29;20036;-76
2023/08/04 19:34:53;;;;;;;5.80;3.90;;;17.80;99.70;;;;;;4944720;29;20038;-74
2023/08/04 19:37:20;;;;;;;6.00;3.38;;;17.80;99.90;;;;;;4945358;29;20031;-74
2023/08/04 19:39:45;;;;;;;5.55;3.35;;;17.70;99.90;;;;;;4929063;29;20033;-75
2023/08/04 19:42:11;;;;;;;5.18;3.55;;;17.70;99.90;;;;;;4928611;29;20308;-74
2023/08/04 19:44:39;;;;;;;6.22;3.70;;;17.70;99.90;;;;;;4928065;29;20039;-74
2023/08/04 19:47:06;;;;;;;;;;;17.70;99.90;;;;;;4928901;29;20107;-76
2023/08/04 19:49:32;;;;;;;6.50;4.28;;;17.70;99.90;;;;;;4945146;29;19914;-74
2023/08/04 19:51:57;;;;;;;9.45;5.65;;;17.70;99.90;;;;;;4945442;29;20059;-77
2023/08/04 19:54:23;;;;;;;8.02;5.07;;;17.70;99.90;;;;;;4945275;29;20063;-76
2023/08/04 19:56:50;;;;;;;8.45;4.82;;;17.70;99.90;;;;;;4945931;29;20032;-75
2023/08/04 19:59:16;;;;;;;10.15;5.40;;;17.60;99.90;;;;;;4944951;29;20039;-76
2023/08/04 20:01:48;;;;;;;9.07;5.35;;;17.60;99.90;;;;;;4928636;29;20147;-76
2023/08/04 20:04:14;;;;;;;9.32;5.47;;;17.60;99.90;;;;;;4940990;29;20099;-75
2023/08/04 20:06:40;;;;;;;7.75;5.22;;;17.60;99.90;;;;;;4910853;29;20056;-76
2023/08/04 20:09:15;;;;;;;6.65;4.78;;;17.50;99.90;;;;;;4940726;29;20225;-74
2023/08/04 20:11:40;;;;;;;8.18;5.47;;;17.50;99.90;;;;;;4942972;29;20035;-76
2023/08/04 20:14:07;;;;;;;7.95;5.20;;;17.50;99.90;;;;;;4945484;29;20062;-75
2023/08/04 20:16:35;;;;;;;8.25;5.45;;;17.50;99.90;;;;;;4912772;29;20183;-77
2023/08/04 20:19:01;;;;;;;12.30;5.65;;;17.40;99.90;;;;;;4928477;29;20079;-75
2023/08/04 20:21:30;;;;;;;8.13;5.13;;;17.50;99.90;;;;;;4928052;29;20039;-76
2023/08/04 20:23:56;;;;;;;8.13;5.35;;;17.50;99.90;;;;;;4945124;29;20027;-76
2023/08/04 20:26:24;;;;;;;7.97;4.93;;;17.40;99.90;;;;;;4945032;29;20031;-75
2023/08/04 20:28:50;;;;;;;;;;;17.30;99.90;;;;;;4945541;29;20024;-75
2023/08/04 20:31:35;;;;;;;8.95;5.30;;;17.30;99.90;;;;;;4945055;29;19929;-75
2023/08/04 20:34:18;;;;;;;9.23;5.35;;;17.30;99.90;;;;;;4945401;29;20044;-76
2023/08/04 20:36:47;;;;;;;8.77;5.30;;;17.30;99.90;;;;;;4928641;29;20030;-75
2023/08/04 20:39:12;;;;;;;10.57;6.03;;;17.30;99.90;;;;;;4945199;29;20040;-75
2023/08/04 20:41:38;;;;;;;8.93;5.95;;;17.30;99.90;;;;;;4944770;29;20168;-77
2023/08/04 20:44:13;;;;;;;8.20;5.53;;;17.30;99.90;;;;;;4945293;29;20035;-76
2023/08/04 20:46:38;;;;;;;8.48;5.35;;;17.20;99.90;;;;;;4944287;29;20063;-76
2023/08/04 20:49:04;;;;;;;9.32;5.57;;;17.30;99.90;;;;;;4944075;29;20028;-75
2023/08/04 20:51:30;;;;;;;8.20;4.78;;;17.20;99.90;;;;;;4944763;29;20102;-76
2023/08/04 20:53:56;;;;;;;8.50;5.20;;;17.20;99.90;;;;;;4944204;29;20079;-75
2023/08/04 20:56:22;;;;;;;8.98;5.28;;;17.20;99.90;;;;;;4944962;29;20027;-75
2023/08/04 20:58:48;;;;;;;10.77;5.90;;;17.10;99.90;;;;;;4945541;29;20039;-75
2023/08/04 21:01:13;;;;;;;9.35;5.57;;;17.20;99.90;;;;;;4944089;29;20035;-75
2023/08/04 21:03:40;;;;;;;10.13;5.25;;;17.20;99.90;;;;;;4943361;29;20102;-75
2023/08/04 21:06:06;;;;;;;10.00;4.95;;;17.20;99.90;;;;;;4944010;29;20103;-76
2023/08/04 21:08:32;;;;;;;9.32;4.70;;;17.20;99.90;;;;;;4947024;29;20314;-76
2023/08/04 21:11:01;;;;;;;9.30;5.20;;;17.20;99.90;;;;;;4948000;29;20035;-76
2023/08/04 21:13:36;;;;;;;7.30;4.50;;;17.20;99.90;;;;;;4931287;29;20040;-75
2023/08/04 21:16:02;;;;;;;7.68;5.05;;;17.30;99.90;;;;;;4931447;29;20031;-75